sensor_id;sensor_type;location;lat;lon;timestamp;pressure;altitude;pressure_sealevel;temperature;humidity
51926;BME280;37952;51.938;15.480;2023-03-05T00:06:58;99563.57;;;1.83;65.20
51926;BME280;37952;51.938;15.480;2023-03-05T00:10:03;99558.21;;;1.82;65.27
51926;BME280;37952;51.938;15.480;2023-03-05T00:13:06;99551.81;;;1.81;65.16
51926;BME280;37952;51.938;15.480;2023-03-05T00:16:12;99547.23;;;1.84;65.38
51926;BME280;37952;51.938;15.480;2023-03-05T00:19:15;99539.19;;;1.86;65.31
51926;BME280;37952;51.938;15.480;2023-03-05T00:22:18;99534.52;;;1.84;65.34
51926;BME280;37952;51.938;15.480;2023-03-05T00:25:22;99528.21;;;1.87;65.29
51926;BME280;37952;51.938;15.480;2023-03-05T00:28:24;99521.75;;;1.88;65.23
51926;BME280;37952;51.938;15.480;2023-03-05T00:31:30;99511.69;;;1.87;64.94
51926;BME280;37952;51.938;15.480;2023-03-05T00:34:33;99516.85;;;1.89;64.77
51926;BME280;37952;51.938;15.480;2023-03-05T00:37:38;99515.02;;;1.86;64.91
51926;BME280;37952;51.938;15.480;2023-03-05T00:40:41;99513.70;;;1.83;64.63
51926;BME280;37952;51.938;15.480;2023-03-05T00:43:44;99509.91;;;1.82;64.74
51926;BME280;37952;51.938;15.480;2023-03-05T00:47:14;99511.84;;;1.81;64.82
51926;BME280;37952;51.938;15.480;2023-03-05T00:50:20;99506.30;;;1.81;64.56
51926;BME280;37952;51.938;15.480;2023-03-05T00:53:23;99499.86;;;1.81;64.57
51926;BME280;37952;51.938;15.480;2023-03-05T00:56:32;99497.29;;;1.80;64.76
51926;BME280;37952;51.938;15.480;2023-03-05T00:59:35;99492.23;;;1.80;64.62
51926;BME280;37952;51.938;15.480;2023-03-05T01:02:38;99491.86;;;1.81;64.71
51926;BME280;37952;51.938;15.480;2023-03-05T01:05:42;99482.02;;;1.79;64.78
51926;BME280;37952;51.938;15.480;2023-03-05T01:08:45;99482.17;;;1.79;64.95
51926;BME280;37952;51.938;15.480;2023-03-05T01:11:48;99468.86;;;1.78;64.75
51926;BME280;37952;51.938;15.480;2023-03-05T01:14:51;99468.77;;;1.75;64.75
51926;BME280;37952;51.938;15.480;2023-03-05T01:17:53;99466.23;;;1.72;64.50
51926;BME280;37952;51.938;15.480;2023-03-05T01:20:56;99467.66;;;1.65;63.88
51926;BME280;37952;51.938;15.480;2023-03-05T01:23:59;99463.06;;;1.55;63.79
51926;BME280;37952;51.938;15.480;2023-03-05T01:27:02;99460.72;;;1.52;64.43
51926;BME280;37952;51.938;15.480;2023-03-05T01:30:06;99449.55;;;1.54;64.72
51926;BME280;37952;51.938;15.480;2023-03-05T01:33:09;99444.94;;;1.57;64.78
51926;BME280;37952;51.938;15.480;2023-03-05T01:36:14;99441.39;;;1.60;64.64
51926;BME280;37952;51.938;15.480;2023-03-05T01:39:18;99442.31;;;1.58;64.56
51926;BME280;37952;51.938;15.480;2023-03-05T01:52:22;99429.98;;;1.65;64.72
51926;BME280;37952;51.938;15.480;2023-03-05T01:55:28;99428.75;;;1.65;64.64
51926;BME280;37952;51.938;15.480;2023-03-05T01:58:31;99430.52;;;1.64;64.84
51926;BME280;37952;51.938;15.480;2023-03-05T02:01:40;99429.86;;;1.56;64.68
51926;BME280;37952;51.938;15.480;2023-03-05T02:05:12;99426.13;;;1.53;64.90
51926;BME280;37952;51.938;15.480;2023-03-05T02:08:18;99420.49;;;1.49;64.90
51926;BME280;37952;51.938;15.480;2023-03-05T02:11:21;99418.20;;;1.45;65.05
51926;BME280;37952;51.938;15.480;2023-03-05T02:14:24;99412.30;;;1.45;65.23
51926;BME280;37952;51.938;15.480;2023-03-05T02:21:39;99402.88;;;1.40;65.44
51926;BME280;37952;51.938;15.480;2023-03-05T02:24:43;99394.48;;;1.42;65.73
51926;BME280;37952;51.938;15.480;2023-03-05T02:28:01;99392.77;;;1.42;65.69
51926;BME280;37952;51.938;15.480;2023-03-05T02:31:08;99387.04;;;1.41;65.63
51926;BME280;37952;51.938;15.480;2023-03-05T02:34:11;99381.63;;;1.42;65.73
51926;BME280;37952;51.938;15.480;2023-03-05T02:37:14;99375.42;;;1.47;65.91
51926;BME280;37952;51.938;15.480;2023-03-05T02:40:17;99376.66;;;1.52;65.70
51926;BME280;37952;51.938;15.480;2023-03-05T02:43:20;99366.65;;;1.50;65.77
51926;BME280;37952;51.938;15.480;2023-03-05T02:46:23;99364.75;;;1.49;65.98
51926;BME280;37952;51.938;15.480;2023-03-05T02:49:26;99358.44;;;1.51;66.05
51926;BME280;37952;51.938;15.480;2023-03-05T02:52:30;99354.98;;;1.56;66.00
51926;BME280;37952;51.938;15.480;2023-03-05T02:55:33;99345.66;;;1.60;66.10
51926;BME280;37952;51.938;15.480;2023-03-05T02:58:36;99341.48;;;1.61;65.90
51926;BME280;37952;51.938;15.480;2023-03-05T03:01:39;99343.55;;;1.61;66.00
51926;BME280;37952;51.938;15.480;2023-03-05T03:04:43;99336.63;;;1.55;66.15
51926;BME280;37952;51.938;15.480;2023-03-05T03:07:46;99328.52;;;1.53;66.35
51926;BME280;37952;51.938;15.480;2023-03-05T03:10:49;99322.86;;;1.57;66.38
51926;BME280;37952;51.938;15.480;2023-03-05T03:13:51;99322.48;;;1.63;66.62
51926;BME280;37952;51.938;15.480;2023-03-05T03:16:54;99330.19;;;1.61;66.92
51926;BME280;37952;51.938;15.480;2023-03-05T03:19:57;99321.10;;;1.57;67.20
51926;BME280;37952;51.938;15.480;2023-03-05T03:23:00;99312.77;;;1.57;67.14
51926;BME280;37952;51.938;15.480;2023-03-05T03:26:03;99307.23;;;1.62;67.30
51926;BME280;37952;51.938;15.480;2023-03-05T03:34:02;99300.38;;;1.47;68.96
51926;BME280;37952;51.938;15.480;2023-03-05T03:37:06;99301.35;;;1.38;70.05
51926;BME280;37952;51.938;15.480;2023-03-05T03:40:10;99298.02;;;1.28;70.38
51926;BME280;37952;51.938;15.480;2023-03-05T03:43:13;99294.23;;;1.21;71.08
51926;BME280;37952;51.938;15.480;2023-03-05T03:51:38;99286.20;;;0.92;72.83
51926;BME280;37952;51.938;15.480;2023-03-05T03:54:41;99280.83;;;0.85;72.43
51926;BME280;37952;51.938;15.480;2023-03-05T03:57:43;99281.92;;;0.83;72.67
51926;BME280;37952;51.938;15.480;2023-03-05T04:00:46;99274.98;;;0.78;72.87
51926;BME280;37952;51.938;15.480;2023-03-05T04:03:49;99273.15;;;0.75;73.54
51926;BME280;37952;51.938;15.480;2023-03-05T04:06:52;99274.42;;;0.72;73.82
51926;BME280;37952;51.938;15.480;2023-03-05T04:14:50;99261.83;;;0.57;75.27
51926;BME280;37952;51.938;15.480;2023-03-05T04:17:53;99255.30;;;0.55;75.01
51926;BME280;37952;51.938;15.480;2023-03-05T04:20:56;99254.14;;;0.54;75.05
51926;BME280;37952;51.938;15.480;2023-03-05T04:23:59;99248.96;;;0.53;75.73
51926;BME280;37952;51.938;15.480;2023-03-05T04:27:01;99242.20;;;0.53;75.50
51926;BME280;37952;51.938;15.480;2023-03-05T04:34:36;99236.77;;;0.55;74.88
51926;BME280;37952;51.938;15.480;2023-03-05T04:37:39;99236.50;;;0.57;75.02
51926;BME280;37952;51.938;15.480;2023-03-05T04:40:43;99237.07;;;0.62;75.22
51926;BME280;37952;51.938;15.480;2023-03-05T04:43:46;99230.89;;;0.66;74.96
51926;BME280;37952;51.938;15.480;2023-03-05T04:46:49;99226.17;;;0.67;74.92
51926;BME280;37952;51.938;15.480;2023-03-05T04:54:40;99222.95;;;0.58;75.36
51926;BME280;37952;51.938;15.480;2023-03-05T04:57:43;99222.27;;;0.58;75.47
51926;BME280;37952;51.938;15.480;2023-03-05T05:00:46;99217.92;;;0.58;75.29
51926;BME280;37952;51.938;15.480;2023-03-05T05:03:49;99221.23;;;0.57;75.27
51926;BME280;37952;51.938;15.480;2023-03-05T05:06:54;99218.50;;;0.56;74.90
51926;BME280;37952;51.938;15.480;2023-03-05T05:09:57;99213.94;;;0.58;74.66
51926;BME280;37952;51.938;15.480;2023-03-05T05:13:00;99224.99;;;0.59;74.81
51926;BME280;37952;51.938;15.480;2023-03-05T05:21:14;99224.27;;;0.54;74.41
51926;BME280;37952;51.938;15.480;2023-03-05T05:24:17;99219.61;;;0.54;74.24
51926;BME280;37952;51.938;15.480;2023-03-05T05:32:16;99220.17;;;0.52;73.69
51926;BME280;37952;51.938;15.480;2023-03-05T05:35:19;99222.13;;;0.51;73.35
51926;BME280;37952;51.938;15.480;2023-03-05T05:38:24;99221.85;;;0.48;73.07
51926;BME280;37952;51.938;15.480;2023-03-05T05:41:27;99228.00;;;0.45;72.98
51926;BME280;37952;51.938;15.480;2023-03-05T05:44:29;99222.69;;;0.43;72.76
51926;BME280;37952;51.938;15.480;2023-03-05T05:47:32;99226.72;;;0.42;72.42
51926;BME280;37952;51.938;15.480;2023-03-05T05:50:37;99224.02;;;0.39;71.89
51926;BME280;37952;51.938;15.480;2023-03-05T05:53:41;99227.55;;;0.36;71.76
51926;BME280;37952;51.938;15.480;2023-03-05T05:56:44;99223.13;;;0.33;71.66
51926;BME280;37952;51.938;15.480;2023-03-05T05:59:47;99228.54;;;0.32;71.40
51926;BME280;37952;51.938;15.480;2023-03-05T06:02:50;99228.91;;;0.31;71.45
51926;BME280;37952;51.938;15.480;2023-03-05T06:05:53;99233.02;;;0.33;70.72
51926;BME280;37952;51.938;15.480;2023-03-05T06:08:56;99229.87;;;0.34;70.76
51926;BME280;37952;51.938;15.480;2023-03-05T06:11:59;99233.02;;;0.32;70.35
51926;BME280;37952;51.938;15.480;2023-03-05T06:15:02;99230.85;;;0.29;70.21
51926;BME280;37952;51.938;15.480;2023-03-05T06:18:05;99229.34;;;0.28;70.01
51926;BME280;37952;51.938;15.480;2023-03-05T06:21:11;99228.10;;;0.29;70.19
51926;BME280;37952;51.938;15.480;2023-03-05T06:24:14;99230.66;;;0.30;69.92
51926;BME280;37952;51.938;15.480;2023-03-05T06:32:05;99235.52;;;0.30;69.58
51926;BME280;37952;51.938;15.480;2023-03-05T06:35:08;99232.36;;;0.38;69.35
51926;BME280;37952;51.938;15.480;2023-03-05T06:38:11;99233.08;;;0.38;69.41
51926;BME280;37952;51.938;15.480;2023-03-05T06:41:17;99229.83;;;0.35;69.41
51926;BME280;37952;51.938;15.480;2023-03-05T06:44:20;99229.42;;;0.37;69.30
51926;BME280;37952;51.938;15.480;2023-03-05T06:47:23;99231.82;;;0.39;69.14
51926;BME280;37952;51.938;15.480;2023-03-05T06:50:26;99231.02;;;0.36;68.90
51926;BME280;37952;51.938;15.480;2023-03-05T06:53:29;99230.89;;;0.34;68.88
51926;BME280;37952;51.938;15.480;2023-03-05T06:56:34;99230.73;;;0.34;69.05
51926;BME280;37952;51.938;15.480;2023-03-05T06:59:37;99222.92;;;0.35;69.20
51926;BME280;37952;51.938;15.480;2023-03-05T07:02:40;99229.04;;;0.39;69.16
51926;BME280;37952;51.938;15.480;2023-03-05T07:05:43;99228.48;;;0.40;69.14
51926;BME280;37952;51.938;15.480;2023-03-05T07:08:46;99237.16;;;0.40;69.40
51926;BME280;37952;51.938;15.480;2023-03-05T07:11:49;99224.21;;;0.31;69.61
51926;BME280;37952;51.938;15.480;2023-03-05T07:14:52;99226.43;;;0.26;70.36
51926;BME280;37952;51.938;15.480;2023-03-05T07:22:32;99235.06;;;0.21;70.71
51926;BME280;37952;51.938;15.480;2023-03-05T07:25:36;99242.41;;;0.18;71.04
51926;BME280;37952;51.938;15.480;2023-03-05T07:28:43;99238.30;;;0.17;71.00
51926;BME280;37952;51.938;15.480;2023-03-05T07:31:45;99237.98;;;0.16;71.10
51926;BME280;37952;51.938;15.480;2023-03-05T07:34:48;99240.05;;;0.16;71.30
51926;BME280;37952;51.938;15.480;2023-03-05T07:37:51;99237.55;;;0.19;71.52
51926;BME280;37952;51.938;15.480;2023-03-05T07:40:56;99235.29;;;0.26;71.28
51926;BME280;37952;51.938;15.480;2023-03-05T07:43:59;99232.42;;;0.29;71.46
51926;BME280;37952;51.938;15.480;2023-03-05T07:47:01;99226.89;;;0.34;71.08
51926;BME280;37952;51.938;15.480;2023-03-05T07:50:05;99232.58;;;0.36;71.19
51926;BME280;37952;51.938;15.480;2023-03-05T07:53:08;99231.10;;;0.40;71.30
51926;BME280;37952;51.938;15.480;2023-03-05T07:56:40;99224.21;;;0.44;71.19
51926;BME280;37952;51.938;15.480;2023-03-05T08:04:33;99218.36;;;0.55;70.96
51926;BME280;37952;51.938;15.480;2023-03-05T08:07:35;99225.34;;;0.59;70.89
51926;BME280;37952;51.938;15.480;2023-03-05T08:10:38;99221.27;;;0.63;70.61
51926;BME280;37952;51.938;15.480;2023-03-05T08:13:43;99225.07;;;0.70;70.60
51926;BME280;37952;51.938;15.480;2023-03-05T08:16:46;99221.86;;;0.73;70.16
51926;BME280;37952;51.938;15.480;2023-03-05T08:24:51;99230.94;;;0.76;69.65
51926;BME280;37952;51.938;15.480;2023-03-05T08:27:54;99221.45;;;0.75;69.80
51926;BME280;37952;51.938;15.480;2023-03-05T08:30:57;99220.21;;;0.76;69.84
51926;BME280;37952;51.938;15.480;2023-03-05T08:34:00;99213.53;;;0.84;69.95
51926;BME280;37952;51.938;15.480;2023-03-05T08:37:03;99214.71;;;0.92;69.92
51926;BME280;37952;51.938;15.480;2023-03-05T08:40:09;99213.27;;;0.94;69.59
51926;BME280;37952;51.938;15.480;2023-03-05T08:43:12;99217.63;;;0.93;69.22
51926;BME280;37952;51.938;15.480;2023-03-05T08:46:15;99204.36;;;0.90;69.36
51926;BME280;37952;51.938;15.480;2023-03-05T08:49:18;99198.09;;;0.90;69.40
51926;BME280;37952;51.938;15.480;2023-03-05T08:52:22;99199.25;;;0.92;69.65
51926;BME280;37952;51.938;15.480;2023-03-05T08:55:25;99206.84;;;0.94;69.47
51926;BME280;37952;51.938;15.480;2023-03-05T08:58:28;99218.27;;;0.89;69.32
51926;BME280;37952;51.938;15.480;2023-03-05T09:01:31;99210.02;;;0.80;69.39
51926;BME280;37952;51.938;15.480;2023-03-05T09:04:36;99213.88;;;0.79;69.50
51926;BME280;37952;51.938;15.480;2023-03-05T09:07:39;99200.98;;;0.81;69.49
51926;BME280;37952;51.938;15.480;2023-03-05T09:10:43;99194.96;;;0.91;69.74
51926;BME280;37952;51.938;15.480;2023-03-05T09:13:46;99196.12;;;0.98;69.74
51926;BME280;37952;51.938;15.480;2023-03-05T09:16:49;99189.98;;;1.06;69.61
51926;BME280;37952;51.938;15.480;2023-03-05T09:19:52;99186.90;;;1.17;69.33
51926;BME280;37952;51.938;15.480;2023-03-05T09:22:55;99189.38;;;1.20;68.61
51926;BME280;37952;51.938;15.480;2023-03-05T09:25:58;99188.80;;;1.22;68.46
51926;BME280;37952;51.938;15.480;2023-03-05T09:29:01;99180.13;;;1.28;68.58
51926;BME280;37952;51.938;15.480;2023-03-05T09:32:04;99175.27;;;1.38;68.86
51926;BME280;37952;51.938;15.480;2023-03-05T09:35:07;99176.20;;;1.42;68.13
51926;BME280;37952;51.938;15.480;2023-03-05T09:38:10;99173.36;;;1.38;67.63
51926;BME280;37952;51.938;15.480;2023-03-05T09:45:39;99167.95;;;1.50;66.10
51926;BME280;37952;51.938;15.480;2023-03-05T09:48:19;99166.05;;;1.54;64.79
51926;BME280;37952;51.938;15.480;2023-03-05T09:51:28;99162.95;;;1.54;64.90
51926;BME280;37952;51.938;15.480;2023-03-05T09:54:40;99167.88;;;1.42;64.19
51926;BME280;37952;51.938;15.480;2023-03-05T09:57:48;99162.23;;;1.33;64.91
51926;BME280;37952;51.938;15.480;2023-03-05T10:09:26;99153.20;;;1.28;64.66
51926;BME280;37952;51.938;15.480;2023-03-05T10:12:40;99151.99;;;1.28;64.59
51926;BME280;37952;51.938;15.480;2023-03-05T10:19:32;99144.30;;;1.35;64.39
51926;BME280;37952;51.938;15.480;2023-03-05T10:26:51;99137.32;;;1.46;62.82
51926;BME280;37952;51.938;15.480;2023-03-05T10:33:22;99140.52;;;1.66;63.26
51926;BME280;37952;51.938;15.480;2023-03-05T10:36:49;99142.83;;;1.74;62.52
51926;BME280;37952;51.938;15.480;2023-03-05T10:40:15;99125.59;;;1.76;62.28
51926;BME280;37952;51.938;15.480;2023-03-05T10:46:48;99125.72;;;1.71;61.97
51926;BME280;37952;51.938;15.480;2023-03-05T10:49:53;99138.69;;;1.68;61.20
51926;BME280;37952;51.938;15.480;2023-03-05T10:56:12;99132.69;;;1.70;61.08
51926;BME280;37952;51.938;15.480;2023-03-05T10:59:16;99136.99;;;1.72;61.59
51926;BME280;37952;51.938;15.480;2023-03-05T11:02:21;99129.33;;;1.73;62.12
51926;BME280;37952;51.938;15.480;2023-03-05T11:05:45;99122.45;;;1.70;62.22
51926;BME280;37952;51.938;15.480;2023-03-05T11:08:48;99127.21;;;1.63;61.58
51926;BME280;37952;51.938;15.480;2023-03-05T11:12:14;99130.13;;;1.59;62.00
51926;BME280;37952;51.938;15.480;2023-03-05T11:15:24;99135.83;;;1.55;62.17
51926;BME280;37952;51.938;15.480;2023-03-05T11:18:28;99131.30;;;1.50;61.58
51926;BME280;37952;51.938;15.480;2023-03-05T11:21:36;99135.02;;;1.48;61.53
51926;BME280;37952;51.938;15.480;2023-03-05T11:24:39;99138.55;;;1.46;62.24
51926;BME280;37952;51.938;15.480;2023-03-05T11:27:49;99132.92;;;1.48;62.47
51926;BME280;37952;51.938;15.480;2023-03-05T11:31:03;99128.55;;;1.44;62.48
51926;BME280;37952;51.938;15.480;2023-03-05T11:34:22;99129.02;;;1.51;63.14
51926;BME280;37952;51.938;15.480;2023-03-05T11:37:27;99142.48;;;1.59;62.49
51926;BME280;37952;51.938;15.480;2023-03-05T11:40:34;99142.10;;;1.49;62.88
51926;BME280;37952;51.938;15.480;2023-03-05T11:43:39;99165.79;;;1.46;64.00
51926;BME280;37952;51.938;15.480;2023-03-05T11:46:48;99139.95;;;1.30;64.80
51926;BME280;37952;51.938;15.480;2023-03-05T11:49:56;99139.14;;;1.12;65.03
51926;BME280;37952;51.938;15.480;2023-03-05T11:53:11;99123.23;;;0.99;65.77
51926;BME280;37952;51.938;15.480;2023-03-05T11:56:23;99107.35;;;1.01;66.08
51926;BME280;37952;51.938;15.480;2023-03-05T11:59:33;99108.71;;;1.18;66.12
51926;BME280;37952;51.938;15.480;2023-03-05T12:02:36;99104.29;;;1.32;66.14
51926;BME280;37952;51.938;15.480;2023-03-05T12:05:43;99097.69;;;1.42;66.07
51926;BME280;37952;51.938;15.480;2023-03-05T12:08:50;99093.27;;;1.55;65.83
51926;BME280;37952;51.938;15.480;2023-03-05T12:13:03;99090.65;;;1.60;65.85
51926;BME280;37952;51.938;15.480;2023-03-05T12:22:31;99087.80;;;1.68;64.48
51926;BME280;37952;51.938;15.480;2023-03-05T12:25:48;99092.63;;;1.64;64.27
51926;BME280;37952;51.938;15.480;2023-03-05T12:28:53;99083.92;;;1.64;64.74
51926;BME280;37952;51.938;15.480;2023-03-05T12:32:00;99081.14;;;1.69;64.89
51926;BME280;37952;51.938;15.480;2023-03-05T12:35:21;99071.92;;;1.79;64.93
51926;BME280;37952;51.938;15.480;2023-03-05T12:38:29;99071.98;;;1.92;64.75
51926;BME280;37952;51.938;15.480;2023-03-05T12:41:33;99073.17;;;2.03;64.84
51926;BME280;37952;51.938;15.480;2023-03-05T12:44:36;99069.68;;;2.08;64.62
51926;BME280;37952;51.938;15.480;2023-03-05T12:47:41;99072.70;;;2.11;64.23
51926;BME280;37952;51.938;15.480;2023-03-05T12:50:48;99081.08;;;2.05;63.68
51926;BME280;37952;51.938;15.480;2023-03-05T12:53:53;99090.83;;;1.95;63.82
51926;BME280;37952;51.938;15.480;2023-03-05T12:56:58;99084.85;;;1.83;63.92
51926;BME280;37952;51.938;15.480;2023-03-05T13:00:09;99086.77;;;1.73;63.79
51926;BME280;37952;51.938;15.480;2023-03-05T13:03:29;99080.91;;;1.61;63.61
51926;BME280;37952;51.938;15.480;2023-03-05T13:06:34;99086.08;;;1.57;63.63
51926;BME280;37952;51.938;15.480;2023-03-05T13:09:37;99080.03;;;1.51;63.67
51926;BME280;37952;51.938;15.480;2023-03-05T13:12:48;99082.37;;;1.48;63.83
51926;BME280;37952;51.938;15.480;2023-03-05T13:15:55;99072.80;;;1.44;64.07
51926;BME280;37952;51.938;15.480;2023-03-05T13:19:00;99075.70;;;1.45;63.60
51926;BME280;37952;51.938;15.480;2023-03-05T13:22:10;99067.36;;;1.41;63.64
51926;BME280;37952;51.938;15.480;2023-03-05T13:25:16;99063.92;;;1.39;63.68
51926;BME280;37952;51.938;15.480;2023-03-05T13:28:22;99061.93;;;1.42;64.28
51926;BME280;37952;51.938;15.480;2023-03-05T13:31:25;99067.00;;;1.56;64.57
51926;BME280;37952;51.938;15.480;2023-03-05T13:34:31;99067.63;;;1.69;64.58
51926;BME280;37952;51.938;15.480;2023-03-05T13:37:48;99064.27;;;1.70;63.84
51926;BME280;37952;51.938;15.480;2023-03-05T13:41:03;99051.20;;;1.66;64.12
51926;BME280;37952;51.938;15.480;2023-03-05T13:44:19;99048.11;;;1.75;64.28
51926;BME280;37952;51.938;15.480;2023-03-05T13:47:26;99045.76;;;1.78;64.17
51926;BME280;37952;51.938;15.480;2023-03-05T13:50:35;99044.92;;;1.81;64.25
51926;BME280;37952;51.938;15.480;2023-03-05T13:53:38;99042.88;;;1.85;63.88
51926;BME280;37952;51.938;15.480;2023-03-05T13:56:53;99045.42;;;1.87;64.06
51926;BME280;37952;51.938;15.480;2023-03-05T13:59:56;99040.98;;;1.80;63.95
51926;BME280;37952;51.938;15.480;2023-03-05T14:03:16;99034.11;;;1.78;64.12
51926;BME280;37952;51.938;15.480;2023-03-05T14:06:24;99034.01;;;1.76;63.97
51926;BME280;37952;51.938;15.480;2023-03-05T14:12:45;99022.88;;;1.76;64.27
51926;BME280;37952;51.938;15.480;2023-03-05T14:16:13;99020.54;;;1.88;64.58
51926;BME280;37952;51.938;15.480;2023-03-05T14:19:37;99018.02;;;2.00;64.58
51926;BME280;37952;51.938;15.480;2023-03-05T14:22:42;99014.30;;;2.01;64.28
51926;BME280;37952;51.938;15.480;2023-03-05T14:25:45;99015.83;;;1.98;64.34
51926;BME280;37952;51.938;15.480;2023-03-05T14:28:53;99014.15;;;1.87;64.37
51926;BME280;37952;51.938;15.480;2023-03-05T14:32:24;99012.39;;;1.78;64.52
51926;BME280;37952;51.938;15.480;2023-03-05T14:35:55;99010.16;;;1.72;64.58
51926;BME280;37952;51.938;15.480;2023-03-05T14:39:03;98999.19;;;1.58;64.64
51926;BME280;37952;51.938;15.480;2023-03-05T14:45:20;99004.30;;;1.66;64.80
51926;BME280;37952;51.938;15.480;2023-03-05T14:48:23;99008.79;;;1.67;65.06
51926;BME280;37952;51.938;15.480;2023-03-05T14:51:26;99007.67;;;1.69;64.94
51926;BME280;37952;51.938;15.480;2023-03-05T14:54:33;99006.08;;;1.70;65.09
51926;BME280;37952;51.938;15.480;2023-03-05T14:57:37;99005.61;;;1.68;65.07
51926;BME280;37952;51.938;15.480;2023-03-05T15:00:42;99010.05;;;1.61;65.08
51926;BME280;37952;51.938;15.480;2023-03-05T15:03:46;99012.59;;;1.63;65.25
51926;BME280;37952;51.938;15.480;2023-03-05T15:06:49;99008.39;;;1.68;65.23
51926;BME280;37952;51.938;15.480;2023-03-05T15:09:53;99003.56;;;1.72;65.24
51926;BME280;37952;51.938;15.480;2023-03-05T15:12:56;98997.69;;;1.76;65.18
51926;BME280;37952;51.938;15.480;2023-03-05T15:16:00;98994.48;;;1.83;65.49
51926;BME280;37952;51.938;15.480;2023-03-05T15:19:03;98995.34;;;1.88;65.49
51926;BME280;37952;51.938;15.480;2023-03-05T15:22:07;98991.39;;;1.96;65.41
51926;BME280;37952;51.938;15.480;2023-03-05T15:25:10;98991.05;;;2.05;65.39
51926;BME280;37952;51.938;15.480;2023-03-05T15:28:14;98984.54;;;2.12;65.29
51926;BME280;37952;51.938;15.480;2023-03-05T15:31:17;98980.78;;;2.15;65.24
51926;BME280;37952;51.938;15.480;2023-03-05T15:34:20;98980.63;;;2.19;65.17
51926;BME280;37952;51.938;15.480;2023-03-05T15:37:23;98979.61;;;2.22;64.99
51926;BME280;37952;51.938;15.480;2023-03-05T15:40:28;98973.73;;;2.17;65.03
51926;BME280;37952;51.938;15.480;2023-03-05T15:43:31;98978.91;;;2.23;65.23
51926;BME280;37952;51.938;15.480;2023-03-05T15:46:34;98959.95;;;2.27;65.34
51926;BME280;37952;51.938;15.480;2023-03-05T15:49:38;98961.00;;;2.31;65.35
51926;BME280;37952;51.938;15.480;2023-03-05T15:52:41;98965.09;;;2.34;65.46
51926;BME280;37952;51.938;15.480;2023-03-05T15:55:44;98975.77;;;2.31;65.31
51926;BME280;37952;51.938;15.480;2023-03-05T15:58:48;98982.16;;;2.28;65.23
51926;BME280;37952;51.938;15.480;2023-03-05T16:01:52;98986.76;;;2.26;65.36
51926;BME280;37952;51.938;15.480;2023-03-05T16:04:55;98983.23;;;2.23;65.34
51926;BME280;37952;51.938;15.480;2023-03-05T16:07:59;98976.31;;;2.27;65.33
51926;BME280;37952;51.938;15.480;2023-03-05T16:11:02;98972.11;;;2.32;65.34
51926;BME280;37952;51.938;15.480;2023-03-05T16:14:07;98978.74;;;2.31;65.25
51926;BME280;37952;51.938;15.480;2023-03-05T16:17:12;98977.02;;;2.27;65.28
51926;BME280;37952;51.938;15.480;2023-03-05T16:20:19;98987.92;;;2.19;65.27
51926;BME280;37952;51.938;15.480;2023-03-05T16:23:22;98992.86;;;1.98;65.65
51926;BME280;37952;51.938;15.480;2023-03-05T16:26:25;98991.73;;;1.87;65.82
51926;BME280;37952;51.938;15.480;2023-03-05T16:29:29;98991.54;;;1.87;65.83
51926;BME280;37952;51.938;15.480;2023-03-05T16:32:36;98983.98;;;1.95;65.92
51926;BME280;37952;51.938;15.480;2023-03-05T16:35:39;98977.51;;;2.00;65.90
51926;BME280;37952;51.938;15.480;2023-03-05T16:38:43;98980.97;;;2.10;65.88
51926;BME280;37952;51.938;15.480;2023-03-05T16:41:46;98976.64;;;2.14;65.79
51926;BME280;37952;51.938;15.480;2023-03-05T16:44:49;98973.14;;;2.15;65.89
51926;BME280;37952;51.938;15.480;2023-03-05T16:47:55;98972.16;;;2.13;66.10
51926;BME280;37952;51.938;15.480;2023-03-05T16:50:59;98970.02;;;2.19;66.02
51926;BME280;37952;51.938;15.480;2023-03-05T16:54:03;98969.04;;;2.17;65.99
51926;BME280;37952;51.938;15.480;2023-03-05T16:57:09;98972.29;;;2.14;65.92
51926;BME280;37952;51.938;15.480;2023-03-05T17:00:12;98977.98;;;2.06;65.73
51926;BME280;37952;51.938;15.480;2023-03-05T17:03:15;98977.34;;;2.00;65.80
51926;BME280;37952;51.938;15.480;2023-03-05T17:06:21;98977.45;;;1.83;65.73
51926;BME280;37952;51.938;15.480;2023-03-05T17:09:24;98975.16;;;1.69;65.72
51926;BME280;37952;51.938;15.480;2023-03-05T17:12:27;98976.65;;;1.57;65.89
51926;BME280;37952;51.938;15.480;2023-03-05T17:15:30;98972.63;;;1.48;66.30
51926;BME280;37952;51.938;15.480;2023-03-05T17:18:35;98975.07;;;1.52;66.43
51926;BME280;37952;51.938;15.480;2023-03-05T17:21:39;98972.95;;;1.58;66.34
51926;BME280;37952;51.938;15.480;2023-03-05T17:24:44;98970.86;;;1.64;66.20
51926;BME280;37952;51.938;15.480;2023-03-05T17:27:49;98972.40;;;1.64;66.17
51926;BME280;37952;51.938;15.480;2023-03-05T17:30:54;98970.54;;;1.67;66.05
51926;BME280;37952;51.938;15.480;2023-03-05T17:34:01;98966.71;;;1.72;65.84
51926;BME280;37952;51.938;15.480;2023-03-05T17:37:04;98970.83;;;1.74;65.54
51926;BME280;37952;51.938;15.480;2023-03-05T17:40:13;98965.30;;;1.73;65.78
51926;BME280;37952;51.938;15.480;2023-03-05T17:43:16;98971.77;;;1.72;65.37
51926;BME280;37952;51.938;15.480;2023-03-05T17:46:21;98968.36;;;1.75;65.42
51926;BME280;37952;51.938;15.480;2023-03-05T17:49:24;98967.59;;;1.77;65.44
51926;BME280;37952;51.938;15.480;2023-03-05T17:52:27;98969.98;;;1.78;65.49
51926;BME280;37952;51.938;15.480;2023-03-05T17:55:30;98968.98;;;1.81;65.55
51926;BME280;37952;51.938;15.480;2023-03-05T17:58:34;98967.68;;;1.84;65.45
51926;BME280;37952;51.938;15.480;2023-03-05T18:01:37;98971.52;;;1.89;65.32
51926;BME280;37952;51.938;15.480;2023-03-05T18:04:40;98972.45;;;1.87;64.98
51926;BME280;37952;51.938;15.480;2023-03-05T18:07:45;98976.55;;;1.88;65.18
51926;BME280;37952;51.938;15.480;2023-03-05T18:10:49;98976.30;;;1.86;64.77
51926;BME280;37952;51.938;15.480;2023-03-05T18:13:52;98971.86;;;1.83;64.84
51926;BME280;37952;51.938;15.480;2023-03-05T18:16:55;98970.68;;;1.78;64.65
51926;BME280;37952;51.938;15.480;2023-03-05T18:20:00;98969.85;;;1.77;64.84